Temp: 8.8°C   Baro: 1009.4mb
  Wind: 0.0mph   Dir: S (178°)
  Rain: 0.0mm (0.0mm/hr)
  Solar: 0W/m2  Hum: 95%
 
Cotswold Observatory Historical Data
 
Daily Summary for October 14, 2019 Units:  Metric    English   Both
Next Day »
Daily Weekly Monthly Yearly Custom
  Current: High: Low: Average:
Temperature: 8.8 °C 10.9 °C 8.7 °C 9.5 °C
Dew Point: 8.0 °C 10.0 °C 7.8 °C 8.5 °C
Humidity: 95% 95% 91% 94%
Wind Speed: 0.0km/h 7.9km/h 0.0km/h 0.4km/h
Wind Gust: 0.0km/h 12.9km/h - -
Wind directionCalm - - SSW
Pressure: 1009.4 hPa 1010.0 hPa 1009.4 hPa -
Precipitation: 0.0 mm      
Historical Graphs
 
 
Tabular Data for October 14, 2019
Time Temperature Dew Point Pressure Wind direction Wind Speed Wind Gust Humidity Rainfall Rate (Hourly) solar
00:00 9.5 °C 8.7 °C 1010.0 hPa Calm   8.0 km/h 95% 0.0 mm 0.00 W/m2
00:05 10.2 °C 9.4 °C 1010.0 hPa Calm   6.4 km/h 95% 0.0 mm 0.00 W/m2
00:10 10.5 °C 9.7 °C 1010.0 hPa SW 1.4 km/h 4.8 km/h 95% 0.0 mm 0.00 W/m2
00:15 10.7 °C 9.8 °C 1010.0 hPa SSW 7.9 km/h 12.9 km/h 94% 0.0 mm 0.00 W/m2
00:20 10.9 °C 10.0 °C 1010.0 hPa Calm   9.7 km/h 94% 0.0 mm 0.00 W/m2
00:25 10.9 °C 9.8 °C 1010.0 hPa SSW 1.4 km/h 12.9 km/h 93% 0.0 mm 0.00 W/m2
00:30 10.9 °C 9.8 °C 1010.0 hPa Calm   6.4 km/h 93% 0.0 mm 0.00 W/m2
00:35 10.8 °C 9.6 °C 1010.0 hPa Calm     92% 0.0 mm 0.00 W/m2
00:40 10.4 °C 9.0 °C 1010.0 hPa Calm     91% 0.0 mm 0.00 W/m2
00:45 10.0 °C 8.8 °C 1010.0 hPa Calm     92% 0.0 mm 0.00 W/m2
00:50 9.7 °C 8.5 °C 1010.0 hPa Calm     92% 0.0 mm 0.00 W/m2
00:55 9.6 °C 8.5 °C 1010.0 hPa Calm     93% 0.0 mm 0.00 W/m2
01:00 9.6 °C 8.5 °C 1010.0 hPa Calm   3.2 km/h 93% 0.0 mm 0.00 W/m2
01:05 9.4 °C 8.3 °C 1009.7 hPa Calm   1.6 km/h 93% 0.0 mm 0.00 W/m2
01:10 9.4 °C 8.3 °C 1009.7 hPa Calm     93% 0.0 mm 0.00 W/m2
01:15 9.3 °C 8.2 °C 1009.7 hPa Calm     93% 0.0 mm 0.00 W/m2
01:20 9.3 °C 8.2 °C 1010.0 hPa Calm     93% 0.0 mm 0.00 W/m2
01:25 9.3 °C 8.2 °C 1010.0 hPa Calm     93% 0.0 mm 0.00 W/m2
01:30 9.2 °C 8.3 °C 1010.0 hPa Calm     94% 0.0 mm 0.00 W/m2
01:35 9.2 °C 8.1 °C 1010.0 hPa Calm     93% 0.0 mm 0.00 W/m2
01:40 9.2 °C 8.3 °C 1010.0 hPa Calm     94% 0.0 mm 0.00 W/m2
01:45 9.1 °C 8.2 °C 1009.7 hPa Calm     94% 0.0 mm 0.00 W/m2
01:50 9.1 °C 8.2 °C 1009.7 hPa Calm     94% 0.0 mm 0.00 W/m2
01:55 9.0 °C 8.1 °C 1009.7 hPa Calm     94% 0.0 mm 0.00 W/m2
02:00 9.1 °C 8.2 °C 1009.7 hPa Calm     94% 0.0 mm 0.00 W/m2
02:05 9.1 °C 8.2 °C 1009.7 hPa Calm     94% 0.0 mm 0.00 W/m2
02:10 9.1 °C 8.2 °C 1010.0 hPa SSW 3.2 km/h 3.2 km/h 94% 0.0 mm 0.00 W/m2
02:15 9.2 °C 8.3 °C 1009.7 hPa Calm   4.8 km/h 94% 0.0 mm 0.00 W/m2
02:20 9.2 °C 8.3 °C 1009.7 hPa Calm     94% 0.0 mm 0.00 W/m2
02:25 9.1 °C 8.2 °C 1009.7 hPa Calm     94% 0.0 mm 0.00 W/m2
02:30 9.0 °C 8.1 °C 1009.7 hPa Calm     94% 0.0 mm 0.00 W/m2
02:35 8.9 °C 8.0 °C 1009.7 hPa Calm     94% 0.0 mm 0.00 W/m2
02:40 8.8 °C 7.9 °C 1009.4 hPa Calm     94% 0.0 mm 0.00 W/m2
02:45 8.8 °C 7.9 °C 1009.4 hPa Calm     94% 0.0 mm 0.00 W/m2
02:50 8.7 °C 7.8 °C 1009.4 hPa Calm     94% 0.0 mm 0.00 W/m2
02:55 8.7 °C 7.8 °C 1009.4 hPa Calm     94% 0.0 mm 0.00 W/m2
03:00 8.7 °C 7.9 °C 1009.4 hPa Calm     95% 0.0 mm 0.00 W/m2
03:05 8.8 °C 8.0 °C 1009.4 hPa Calm     95% 0.0 mm 0.00 W/m2
03:10 8.8 °C 8.0 °C 1009.4 hPa Calm     95% 0.0 mm 0.00 W/m2